sensor_id;sensor_type;location;lat;lon;timestamp;P1;durP1;ratioP1;P2;durP2;ratioP2
79348;SDS011;68817;48.110;11.660;2023-11-22T00:00:17;8.30;;;5.32;;
79348;SDS011;68817;48.110;11.660;2023-11-22T00:02:44;9.07;;;5.45;;
79348;SDS011;68817;48.110;11.660;2023-11-22T00:05:09;13.68;;;6.03;;
79348;SDS011;68817;48.110;11.660;2023-11-22T00:07:36;10.35;;;5.65;;
79348;SDS011;68817;48.110;11.660;2023-11-22T00:10:02;10.63;;;6.15;;
79348;SDS011;68817;48.110;11.660;2023-11-22T00:12:29;10.63;;;5.50;;
79348;SDS011;68817;48.110;11.660;2023-11-22T00:15:01;9.10;;;5.60;;
79348;SDS011;68817;48.110;11.660;2023-11-22T00:17:28;7.70;;;5.28;;
79348;SDS011;68817;48.110;11.660;2023-11-22T00:19:54;10.18;;;5.55;;
79348;SDS011;68817;48.110;11.660;2023-11-22T00:22:19;10.27;;;5.72;;
79348;SDS011;68817;48.110;11.660;2023-11-22T00:24:44;7.85;;;5.00;;
79348;SDS011;68817;48.110;11.660;2023-11-22T00:29:40;7.93;;;5.13;;
79348;SDS011;68817;48.110;11.660;2023-11-22T00:32:06;12.23;;;5.43;;
79348;SDS011;68817;48.110;11.660;2023-11-22T00:34:32;9.68;;;5.40;;
79348;SDS011;68817;48.110;11.660;2023-11-22T00:36:58;8.68;;;5.80;;
79348;SDS011;68817;48.110;11.660;2023-11-22T00:39:23;10.32;;;5.60;;
79348;SDS011;68817;48.110;11.660;2023-11-22T00:41:48;9.20;;;5.38;;
79348;SDS011;68817;48.110;11.660;2023-11-22T00:44:14;9.73;;;5.75;;
79348;SDS011;68817;48.110;11.660;2023-11-22T00:46:39;9.25;;;5.57;;
79348;SDS011;68817;48.110;11.660;2023-11-22T00:49:05;7.13;;;5.00;;
79348;SDS011;68817;48.110;11.660;2023-11-22T00:51:32;11.90;;;5.20;;
79348;SDS011;68817;48.110;11.660;2023-11-22T00:53:58;8.75;;;5.55;;
79348;SDS011;68817;48.110;11.660;2023-11-22T00:56:23;9.18;;;5.22;;
79348;SDS011;68817;48.110;11.660;2023-11-22T00:58:49;9.65;;;6.07;;
79348;SDS011;68817;48.110;11.660;2023-11-22T01:01:15;10.10;;;5.50;;
79348;SDS011;68817;48.110;11.660;2023-11-22T01:03:42;10.98;;;6.25;;
79348;SDS011;68817;48.110;11.660;2023-11-22T01:06:07;11.35;;;5.95;;
79348;SDS011;68817;48.110;11.660;2023-11-22T01:08:34;10.13;;;5.25;;
79348;SDS011;68817;48.110;11.660;2023-11-22T01:11:00;11.52;;;5.72;;
79348;SDS011;68817;48.110;11.660;2023-11-22T01:13:28;7.93;;;5.15;;
79348;SDS011;68817;48.110;11.660;2023-11-22T01:15:54;11.40;;;6.03;;
79348;SDS011;68817;48.110;11.660;2023-11-22T01:18:19;9.70;;;5.30;;
79348;SDS011;68817;48.110;11.660;2023-11-22T01:20:45;10.38;;;5.50;;
79348;SDS011;68817;48.110;11.660;2023-11-22T01:23:10;7.90;;;5.25;;
79348;SDS011;68817;48.110;11.660;2023-11-22T01:25:36;11.43;;;5.45;;
79348;SDS011;68817;48.110;11.660;2023-11-22T01:28:01;8.70;;;4.88;;
79348;SDS011;68817;48.110;11.660;2023-11-22T01:30:27;7.22;;;4.70;;
79348;SDS011;68817;48.110;11.660;2023-11-22T01:32:53;10.15;;;4.93;;
79348;SDS011;68817;48.110;11.660;2023-11-22T01:35:20;10.68;;;5.57;;
79348;SDS011;68817;48.110;11.660;2023-11-22T01:37:46;7.95;;;5.55;;
79348;SDS011;68817;48.110;11.660;2023-11-22T01:40:11;9.10;;;4.72;;
79348;SDS011;68817;48.110;11.660;2023-11-22T01:42:37;8.23;;;4.65;;
79348;SDS011;68817;48.110;11.660;2023-11-22T01:45:05;10.70;;;5.53;;
79348;SDS011;68817;48.110;11.660;2023-11-22T01:47:31;9.52;;;5.20;;
79348;SDS011;68817;48.110;11.660;2023-11-22T01:49:57;8.60;;;5.63;;
79348;SDS011;68817;48.110;11.660;2023-11-22T01:52:22;8.95;;;5.68;;
79348;SDS011;68817;48.110;11.660;2023-11-22T01:54:48;8.15;;;5.22;;
79348;SDS011;68817;48.110;11.660;2023-11-22T01:57:14;6.70;;;4.88;;
79348;SDS011;68817;48.110;11.660;2023-11-22T01:59:39;10.23;;;5.60;;
79348;SDS011;68817;48.110;11.660;2023-11-22T02:02:05;8.43;;;5.18;;
79348;SDS011;68817;48.110;11.660;2023-11-22T02:04:30;8.75;;;4.60;;
79348;SDS011;68817;48.110;11.660;2023-11-22T02:06:56;6.55;;;4.13;;
79348;SDS011;68817;48.110;11.660;2023-11-22T02:09:21;6.78;;;4.22;;
79348;SDS011;68817;48.110;11.660;2023-11-22T02:11:47;7.18;;;4.05;;
79348;SDS011;68817;48.110;11.660;2023-11-22T02:14:14;6.38;;;4.10;;
79348;SDS011;68817;48.110;11.660;2023-11-22T02:16:40;5.72;;;3.80;;
79348;SDS011;68817;48.110;11.660;2023-11-22T02:19:06;8.35;;;3.95;;
79348;SDS011;68817;48.110;11.660;2023-11-22T02:21:34;6.95;;;3.85;;
79348;SDS011;68817;48.110;11.660;2023-11-22T02:24:00;6.00;;;3.55;;
79348;SDS011;68817;48.110;11.660;2023-11-22T02:26:25;6.60;;;4.15;;
79348;SDS011;68817;48.110;11.660;2023-11-22T02:28:50;6.22;;;3.50;;
79348;SDS011;68817;48.110;11.660;2023-11-22T02:31:16;8.48;;;4.32;;
79348;SDS011;68817;48.110;11.660;2023-11-22T02:33:43;6.50;;;4.38;;
79348;SDS011;68817;48.110;11.660;2023-11-22T02:36:09;5.35;;;3.70;;
79348;SDS011;68817;48.110;11.660;2023-11-22T02:38:37;5.30;;;3.70;;
79348;SDS011;68817;48.110;11.660;2023-11-22T02:41:03;4.72;;;3.08;;
79348;SDS011;68817;48.110;11.660;2023-11-22T02:43:29;4.13;;;2.85;;
79348;SDS011;68817;48.110;11.660;2023-11-22T02:45:55;4.50;;;2.85;;
79348;SDS011;68817;48.110;11.660;2023-11-22T02:48:21;3.38;;;2.00;;
79348;SDS011;68817;48.110;11.660;2023-11-22T02:50:47;2.90;;;2.08;;
79348;SDS011;68817;48.110;11.660;2023-11-22T02:53:14;3.15;;;1.83;;
79348;SDS011;68817;48.110;11.660;2023-11-22T02:55:39;2.97;;;1.95;;
79348;SDS011;68817;48.110;11.660;2023-11-22T02:58:05;4.28;;;1.95;;
79348;SDS011;68817;48.110;11.660;2023-11-22T03:00:31;3.58;;;2.10;;
79348;SDS011;68817;48.110;11.660;2023-11-22T03:02:59;2.95;;;1.98;;
79348;SDS011;68817;48.110;11.660;2023-11-22T03:05:25;3.28;;;2.10;;
79348;SDS011;68817;48.110;11.660;2023-11-22T03:07:50;3.95;;;2.22;;
79348;SDS011;68817;48.110;11.660;2023-11-22T03:10:17;3.53;;;2.13;;
79348;SDS011;68817;48.110;11.660;2023-11-22T03:12:45;4.60;;;2.28;;
79348;SDS011;68817;48.110;11.660;2023-11-22T03:15:11;3.90;;;2.60;;
79348;SDS011;68817;48.110;11.660;2023-11-22T03:17:36;4.00;;;2.45;;
79348;SDS011;68817;48.110;11.660;2023-11-22T03:20:04;3.85;;;2.20;;
79348;SDS011;68817;48.110;11.660;2023-11-22T03:22:33;3.75;;;2.25;;
79348;SDS011;68817;48.110;11.660;2023-11-22T03:25:01;4.82;;;2.72;;
79348;SDS011;68817;48.110;11.660;2023-11-22T03:27:27;3.83;;;2.47;;
79348;SDS011;68817;48.110;11.660;2023-11-22T03:29:52;3.40;;;2.08;;
79348;SDS011;68817;48.110;11.660;2023-11-22T03:32:18;5.30;;;2.60;;
79348;SDS011;68817;48.110;11.660;2023-11-22T03:34:44;3.55;;;2.25;;
79348;SDS011;68817;48.110;11.660;2023-11-22T03:37:09;3.95;;;2.10;;
79348;SDS011;68817;48.110;11.660;2023-11-22T03:39:35;4.00;;;2.13;;
79348;SDS011;68817;48.110;11.660;2023-11-22T03:42:00;4.53;;;2.60;;
79348;SDS011;68817;48.110;11.660;2023-11-22T03:44:25;3.55;;;2.47;;
79348;SDS011;68817;48.110;11.660;2023-11-22T03:46:51;3.83;;;2.20;;
79348;SDS011;68817;48.110;11.660;2023-11-22T03:49:16;3.40;;;2.20;;
79348;SDS011;68817;48.110;11.660;2023-11-22T03:51:42;4.18;;;2.47;;
79348;SDS011;68817;48.110;11.660;2023-11-22T03:54:08;3.65;;;2.25;;
79348;SDS011;68817;48.110;11.660;2023-11-22T03:56:35;3.60;;;2.30;;
79348;SDS011;68817;48.110;11.660;2023-11-22T03:59:00;3.22;;;2.28;;
79348;SDS011;68817;48.110;11.660;2023-11-22T04:01:26;3.47;;;2.15;;
79348;SDS011;68817;48.110;11.660;2023-11-22T04:03:51;4.07;;;2.17;;
79348;SDS011;68817;48.110;11.660;2023-11-22T04:06:17;4.00;;;2.40;;
79348;SDS011;68817;48.110;11.660;2023-11-22T04:08:44;3.88;;;2.47;;
79348;SDS011;68817;48.110;11.660;2023-11-22T04:11:10;4.18;;;2.17;;
79348;SDS011;68817;48.110;11.660;2023-11-22T04:13:36;4.43;;;2.53;;
79348;SDS011;68817;48.110;11.660;2023-11-22T04:16:02;3.90;;;2.38;;
79348;SDS011;68817;48.110;11.660;2023-11-22T04:18:27;4.20;;;2.35;;
79348;SDS011;68817;48.110;11.660;2023-11-22T04:20:53;4.25;;;2.17;;
79348;SDS011;68817;48.110;11.660;2023-11-22T04:23:18;4.40;;;2.42;;
79348;SDS011;68817;48.110;11.660;2023-11-22T04:25:44;3.50;;;2.00;;
79348;SDS011;68817;48.110;11.660;2023-11-22T04:28:09;3.70;;;2.17;;
79348;SDS011;68817;48.110;11.660;2023-11-22T04:30:35;4.07;;;2.38;;
79348;SDS011;68817;48.110;11.660;2023-11-22T04:33:00;5.43;;;2.78;;
79348;SDS011;68817;48.110;11.660;2023-11-22T04:35:27;4.00;;;2.47;;
79348;SDS011;68817;48.110;11.660;2023-11-22T04:37:52;4.60;;;2.50;;
79348;SDS011;68817;48.110;11.660;2023-11-22T04:40:20;4.03;;;2.58;;
79348;SDS011;68817;48.110;11.660;2023-11-22T04:42:45;3.58;;;2.30;;
79348;SDS011;68817;48.110;11.660;2023-11-22T04:45:11;5.45;;;2.72;;
79348;SDS011;68817;48.110;11.660;2023-11-22T04:47:36;4.40;;;2.67;;
79348;SDS011;68817;48.110;11.660;2023-11-22T04:50:02;5.10;;;2.75;;
79348;SDS011;68817;48.110;11.660;2023-11-22T04:52:27;7.15;;;3.97;;
79348;SDS011;68817;48.110;11.660;2023-11-22T04:54:52;4.72;;;2.53;;
79348;SDS011;68817;48.110;11.660;2023-11-22T04:57:18;4.22;;;2.30;;
79348;SDS011;68817;48.110;11.660;2023-11-22T04:59:43;4.03;;;2.42;;
79348;SDS011;68817;48.110;11.660;2023-11-22T05:02:10;3.72;;;2.25;;
79348;SDS011;68817;48.110;11.660;2023-11-22T05:04:36;5.47;;;2.10;;
79348;SDS011;68817;48.110;11.660;2023-11-22T05:07:02;4.82;;;2.35;;
79348;SDS011;68817;48.110;11.660;2023-11-22T05:09:28;4.63;;;2.30;;
79348;SDS011;68817;48.110;11.660;2023-11-22T05:11:53;3.55;;;1.85;;
79348;SDS011;68817;48.110;11.660;2023-11-22T05:14:19;4.15;;;2.28;;
79348;SDS011;68817;48.110;11.660;2023-11-22T05:16:44;3.90;;;2.50;;
79348;SDS011;68817;48.110;11.660;2023-11-22T05:19:10;3.83;;;2.20;;
79348;SDS011;68817;48.110;11.660;2023-11-22T05:21:35;2.80;;;1.95;;
79348;SDS011;68817;48.110;11.660;2023-11-22T05:24:01;2.88;;;2.05;;
79348;SDS011;68817;48.110;11.660;2023-11-22T05:26:26;3.53;;;1.92;;
79348;SDS011;68817;48.110;11.660;2023-11-22T05:28:52;4.35;;;2.25;;
79348;SDS011;68817;48.110;11.660;2023-11-22T05:31:21;4.28;;;2.17;;
79348;SDS011;68817;48.110;11.660;2023-11-22T05:33:48;4.45;;;1.90;;
79348;SDS011;68817;48.110;11.660;2023-11-22T05:36:13;3.17;;;2.03;;
79348;SDS011;68817;48.110;11.660;2023-11-22T05:38:41;3.28;;;1.90;;
79348;SDS011;68817;48.110;11.660;2023-11-22T05:41:07;3.47;;;1.70;;
79348;SDS011;68817;48.110;11.660;2023-11-22T05:43:33;3.10;;;1.75;;
79348;SDS011;68817;48.110;11.660;2023-11-22T05:46:01;5.45;;;2.22;;
79348;SDS011;68817;48.110;11.660;2023-11-22T05:48:28;2.42;;;1.80;;
79348;SDS011;68817;48.110;11.660;2023-11-22T05:50:53;3.25;;;1.75;;
79348;SDS011;68817;48.110;11.660;2023-11-22T05:53:18;3.35;;;2.08;;
79348;SDS011;68817;48.110;11.660;2023-11-22T05:55:47;3.63;;;1.75;;
79348;SDS011;68817;48.110;11.660;2023-11-22T06:00:43;2.67;;;1.67;;
79348;SDS011;68817;48.110;11.660;2023-11-22T06:03:09;2.22;;;1.70;;
79348;SDS011;68817;48.110;11.660;2023-11-22T06:05:35;3.33;;;1.98;;
79348;SDS011;68817;48.110;11.660;2023-11-22T06:08:01;2.97;;;1.70;;
79348;SDS011;68817;48.110;11.660;2023-11-22T06:10:26;2.88;;;1.90;;
79348;SDS011;68817;48.110;11.660;2023-11-22T06:12:52;3.40;;;1.98;;
79348;SDS011;68817;48.110;11.660;2023-11-22T06:15:17;3.08;;;2.00;;
79348;SDS011;68817;48.110;11.660;2023-11-22T06:17:45;2.83;;;1.75;;
79348;SDS011;68817;48.110;11.660;2023-11-22T06:20:11;3.10;;;2.03;;
79348;SDS011;68817;48.110;11.660;2023-11-22T06:22:37;2.58;;;1.65;;
79348;SDS011;68817;48.110;11.660;2023-11-22T06:25:06;3.30;;;1.98;;
79348;SDS011;68817;48.110;11.660;2023-11-22T06:27:33;2.97;;;1.98;;
79348;SDS011;68817;48.110;11.660;2023-11-22T06:29:58;2.50;;;1.73;;
79348;SDS011;68817;48.110;11.660;2023-11-22T06:32:24;2.65;;;1.73;;
79348;SDS011;68817;48.110;11.660;2023-11-22T06:34:49;2.78;;;1.73;;
79348;SDS011;68817;48.110;11.660;2023-11-22T06:37:16;3.30;;;2.05;;
79348;SDS011;68817;48.110;11.660;2023-11-22T06:39:41;3.25;;;1.85;;
79348;SDS011;68817;48.110;11.660;2023-11-22T06:42:07;3.83;;;2.10;;
79348;SDS011;68817;48.110;11.660;2023-11-22T06:44:33;3.65;;;2.30;;
79348;SDS011;68817;48.110;11.660;2023-11-22T06:46:59;4.45;;;2.30;;
79348;SDS011;68817;48.110;11.660;2023-11-22T06:49:25;3.15;;;2.17;;
79348;SDS011;68817;48.110;11.660;2023-11-22T06:51:50;5.03;;;2.60;;
79348;SDS011;68817;48.110;11.660;2023-11-22T06:54:18;2.25;;;1.80;;
79348;SDS011;68817;48.110;11.660;2023-11-22T06:56:45;3.17;;;1.88;;
79348;SDS011;68817;48.110;11.660;2023-11-22T06:59:10;3.75;;;2.17;;
79348;SDS011;68817;48.110;11.660;2023-11-22T07:01:36;3.95;;;2.55;;
79348;SDS011;68817;48.110;11.660;2023-11-22T07:04:01;4.75;;;2.58;;
79348;SDS011;68817;48.110;11.660;2023-11-22T07:06:29;4.32;;;2.40;;
79348;SDS011;68817;48.110;11.660;2023-11-22T07:08:54;4.13;;;2.65;;
79348;SDS011;68817;48.110;11.660;2023-11-22T07:11:23;4.40;;;2.53;;
79348;SDS011;68817;48.110;11.660;2023-11-22T07:13:49;5.90;;;3.47;;
79348;SDS011;68817;48.110;11.660;2023-11-22T07:16:14;4.05;;;2.75;;
79348;SDS011;68817;48.110;11.660;2023-11-22T07:18:40;5.43;;;2.90;;
79348;SDS011;68817;48.110;11.660;2023-11-22T07:21:05;5.18;;;2.97;;
79348;SDS011;68817;48.110;11.660;2023-11-22T07:23:31;5.15;;;3.20;;
79348;SDS011;68817;48.110;11.660;2023-11-22T07:25:56;4.68;;;3.45;;
79348;SDS011;68817;48.110;11.660;2023-11-22T07:28:22;5.43;;;3.50;;
79348;SDS011;68817;48.110;11.660;2023-11-22T07:30:47;6.25;;;3.45;;
79348;SDS011;68817;48.110;11.660;2023-11-22T07:33:14;4.97;;;3.42;;
79348;SDS011;68817;48.110;11.660;2023-11-22T07:35:40;4.47;;;3.10;;
79348;SDS011;68817;48.110;11.660;2023-11-22T07:38:06;3.70;;;2.78;;
79348;SDS011;68817;48.110;11.660;2023-11-22T07:40:33;4.40;;;3.13;;
79348;SDS011;68817;48.110;11.660;2023-11-22T07:42:59;4.10;;;3.10;;
79348;SDS011;68817;48.110;11.660;2023-11-22T07:45:25;6.03;;;2.88;;
79348;SDS011;68817;48.110;11.660;2023-11-22T07:47:50;4.85;;;3.10;;
79348;SDS011;68817;48.110;11.660;2023-11-22T07:50:18;5.53;;;3.20;;
79348;SDS011;68817;48.110;11.660;2023-11-22T07:52:45;5.03;;;3.20;;
79348;SDS011;68817;48.110;11.660;2023-11-22T07:55:11;4.90;;;3.08;;
79348;SDS011;68817;48.110;11.660;2023-11-22T07:57:39;4.65;;;2.97;;
79348;SDS011;68817;48.110;11.660;2023-11-22T08:00:05;4.63;;;2.90;;
79348;SDS011;68817;48.110;11.660;2023-11-22T08:02:36;4.43;;;2.53;;
79348;SDS011;68817;48.110;11.660;2023-11-22T08:05:05;5.47;;;3.28;;
79348;SDS011;68817;48.110;11.660;2023-11-22T08:07:34;3.25;;;2.40;;
79348;SDS011;68817;48.110;11.660;2023-11-22T08:10:03;4.03;;;2.83;;
79348;SDS011;68817;48.110;11.660;2023-11-22T08:12:34;6.07;;;2.63;;
79348;SDS011;68817;48.110;11.660;2023-11-22T08:15:01;6.30;;;3.17;;
79348;SDS011;68817;48.110;11.660;2023-11-22T08:17:28;4.68;;;3.15;;
79348;SDS011;68817;48.110;11.660;2023-11-22T08:19:54;4.68;;;3.15;;
79348;SDS011;68817;48.110;11.660;2023-11-22T08:22:20;4.35;;;2.60;;
79348;SDS011;68817;48.110;11.660;2023-11-22T08:24:46;4.22;;;2.95;;
79348;SDS011;68817;48.110;11.660;2023-11-22T08:27:12;4.75;;;2.90;;
79348;SDS011;68817;48.110;11.660;2023-11-22T08:29:41;5.43;;;3.60;;
79348;SDS011;68817;48.110;11.660;2023-11-22T08:32:06;6.68;;;3.53;;
79348;SDS011;68817;48.110;11.660;2023-11-22T08:34:32;5.38;;;3.38;;
79348;SDS011;68817;48.110;11.660;2023-11-22T08:36:57;4.75;;;3.17;;
79348;SDS011;68817;48.110;11.660;2023-11-22T08:39:24;4.80;;;3.55;;
79348;SDS011;68817;48.110;11.660;2023-11-22T08:41:49;6.45;;;3.83;;
79348;SDS011;68817;48.110;11.660;2023-11-22T08:44:15;7.25;;;3.35;;
79348;SDS011;68817;48.110;11.660;2023-11-22T08:46:41;6.28;;;3.97;;
79348;SDS011;68817;48.110;11.660;2023-11-22T08:49:06;6.47;;;3.60;;
79348;SDS011;68817;48.110;11.660;2023-11-22T08:51:32;4.88;;;3.22;;
79348;SDS011;68817;48.110;11.660;2023-11-22T08:53:58;6.22;;;4.15;;
79348;SDS011;68817;48.110;11.660;2023-11-22T08:56:24;6.30;;;3.92;;
79348;SDS011;68817;48.110;11.660;2023-11-22T08:58:50;5.35;;;3.60;;
79348;SDS011;68817;48.110;11.660;2023-11-22T09:01:15;5.90;;;3.63;;
79348;SDS011;68817;48.110;11.660;2023-11-22T09:03:40;6.78;;;3.92;;
79348;SDS011;68817;48.110;11.660;2023-11-22T09:06:06;6.28;;;4.43;;
79348;SDS011;68817;48.110;11.660;2023-11-22T09:08:32;5.43;;;3.63;;
79348;SDS011;68817;48.110;11.660;2023-11-22T09:10:57;5.65;;;3.50;;
79348;SDS011;68817;48.110;11.660;2023-11-22T09:13:23;5.40;;;3.60;;
79348;SDS011;68817;48.110;11.660;2023-11-22T09:15:49;5.35;;;3.17;;
79348;SDS011;68817;48.110;11.660;2023-11-22T09:18:15;5.93;;;3.53;;
79348;SDS011;68817;48.110;11.660;2023-11-22T09:20:41;5.43;;;3.58;;
79348;SDS011;68817;48.110;11.660;2023-11-22T09:23:09;5.80;;;3.55;;
79348;SDS011;68817;48.110;11.660;2023-11-22T09:25:34;4.90;;;3.47;;
79348;SDS011;68817;48.110;11.660;2023-11-22T09:28:01;4.65;;;3.25;;
79348;SDS011;68817;48.110;11.660;2023-11-22T09:30:30;6.00;;;3.03;;
79348;SDS011;68817;48.110;11.660;2023-11-22T09:33:22;4.60;;;3.17;;
79348;SDS011;68817;48.110;11.660;2023-11-22T09:35:48;4.80;;;3.30;;
79348;SDS011;68817;48.110;11.660;2023-11-22T09:38:14;6.28;;;3.40;;
79348;SDS011;68817;48.110;11.660;2023-11-22T09:40:44;4.70;;;3.13;;
79348;SDS011;68817;48.110;11.660;2023-11-22T09:43:11;4.50;;;3.13;;
79348;SDS011;68817;48.110;11.660;2023-11-22T09:45:37;3.97;;;2.80;;
79348;SDS011;68817;48.110;11.660;2023-11-22T09:48:15;4.68;;;2.72;;
79348;SDS011;68817;48.110;11.660;2023-11-22T09:56:29;3.72;;;2.53;;
79348;SDS011;68817;48.110;11.660;2023-11-22T09:58:57;6.15;;;3.10;;
79348;SDS011;68817;48.110;11.660;2023-11-22T10:01:25;4.47;;;2.95;;
79348;SDS011;68817;48.110;11.660;2023-11-22T10:03:54;4.63;;;2.70;;
79348;SDS011;68817;48.110;11.660;2023-11-22T10:06:19;4.05;;;2.92;;
79348;SDS011;68817;48.110;11.660;2023-11-22T10:08:45;3.97;;;2.78;;
79348;SDS011;68817;48.110;11.660;2023-11-22T10:11:15;4.07;;;2.75;;
79348;SDS011;68817;48.110;11.660;2023-11-22T10:13:42;3.40;;;2.10;;
79348;SDS011;68817;48.110;11.660;2023-11-22T10:16:10;4.80;;;2.58;;
79348;SDS011;68817;48.110;11.660;2023-11-22T10:18:41;3.35;;;2.30;;
79348;SDS011;68817;48.110;11.660;2023-11-22T10:21:18;3.00;;;2.05;;
79348;SDS011;68817;48.110;11.660;2023-11-22T10:23:46;3.95;;;2.50;;
79348;SDS011;68817;48.110;11.660;2023-11-22T10:26:12;3.78;;;2.55;;
79348;SDS011;68817;48.110;11.660;2023-11-22T10:28:41;5.03;;;2.90;;
79348;SDS011;68817;48.110;11.660;2023-11-22T10:31:07;3.53;;;2.50;;
79348;SDS011;68817;48.110;11.660;2023-11-22T10:33:32;3.60;;;2.33;;
79348;SDS011;68817;48.110;11.660;2023-11-22T10:35:58;3.60;;;2.63;;
79348;SDS011;68817;48.110;11.660;2023-11-22T10:38:23;3.42;;;2.05;;
79348;SDS011;68817;48.110;11.660;2023-11-22T10:40:49;4.28;;;2.92;;
79348;SDS011;68817;48.110;11.660;2023-11-22T10:43:17;3.45;;;2.80;;
79348;SDS011;68817;48.110;11.660;2023-11-22T10:45:43;3.78;;;2.70;;
79348;SDS011;68817;48.110;11.660;2023-11-22T10:48:14;3.72;;;2.63;;
79348;SDS011;68817;48.110;11.660;2023-11-22T10:50:43;3.08;;;2.40;;
79348;SDS011;68817;48.110;11.660;2023-11-22T10:53:11;3.38;;;2.38;;
79348;SDS011;68817;48.110;11.660;2023-11-22T10:55:40;3.53;;;2.47;;
79348;SDS011;68817;48.110;11.660;2023-11-22T10:58:09;4.97;;;3.15;;
79348;SDS011;68817;48.110;11.660;2023-11-22T11:00:36;4.47;;;2.55;;
79348;SDS011;68817;48.110;11.660;2023-11-22T11:03:17;3.78;;;2.75;;
79348;SDS011;68817;48.110;11.660;2023-11-22T11:05:52;3.53;;;2.83;;
79348;SDS011;68817;48.110;11.660;2023-11-22T11:08:25;3.58;;;2.50;;
79348;SDS011;68817;48.110;11.660;2023-11-22T11:10:52;4.25;;;2.70;;
79348;SDS011;68817;48.110;11.660;2023-11-22T11:13:19;4.82;;;3.13;;
79348;SDS011;68817;48.110;11.660;2023-11-22T11:15:45;4.40;;;3.30;;
79348;SDS011;68817;48.110;11.660;2023-11-22T11:18:13;3.08;;;2.33;;
79348;SDS011;68817;48.110;11.660;2023-11-22T11:20:53;3.10;;;2.38;;
79348;SDS011;68817;48.110;11.660;2023-11-22T11:23:20;3.70;;;2.35;;
79348;SDS011;68817;48.110;11.660;2023-11-22T11:25:50;3.42;;;2.35;;
79348;SDS011;68817;48.110;11.660;2023-11-22T11:28:17;3.53;;;2.25;;
79348;SDS011;68817;48.110;11.660;2023-11-22T11:30:46;3.08;;;2.42;;
79348;SDS011;68817;48.110;11.660;2023-11-22T11:33:13;4.43;;;2.85;;
79348;SDS011;68817;48.110;11.660;2023-11-22T11:35:43;3.25;;;2.45;;
79348;SDS011;68817;48.110;11.660;2023-11-22T11:38:13;3.65;;;2.42;;
79348;SDS011;68817;48.110;11.660;2023-11-22T11:40:43;3.17;;;2.30;;
79348;SDS011;68817;48.110;11.660;2023-11-22T11:43:10;3.95;;;2.47;;
79348;SDS011;68817;48.110;11.660;2023-11-22T11:45:38;3.17;;;2.35;;
79348;SDS011;68817;48.110;11.660;2023-11-22T11:48:14;3.75;;;2.30;;
79348;SDS011;68817;48.110;11.660;2023-11-22T11:50:40;3.40;;;2.60;;
79348;SDS011;68817;48.110;11.660;2023-11-22T11:53:06;4.47;;;2.40;;
79348;SDS011;68817;48.110;11.660;2023-11-22T11:55:32;3.97;;;2.53;;
79348;SDS011;68817;48.110;11.660;2023-11-22T11:57:57;6.00;;;2.50;;
79348;SDS011;68817;48.110;11.660;2023-11-22T12:00:29;4.70;;;3.20;;
79348;SDS011;68817;48.110;11.660;2023-11-22T12:02:54;3.95;;;2.75;;
79348;SDS011;68817;48.110;11.660;2023-11-22T12:05:20;5.10;;;2.70;;
79348;SDS011;68817;48.110;11.660;2023-11-22T12:07:45;4.20;;;2.65;;
79348;SDS011;68817;48.110;11.660;2023-11-22T12:10:11;4.03;;;2.72;;
79348;SDS011;68817;48.110;11.660;2023-11-22T12:12:37;3.25;;;2.40;;
79348;SDS011;68817;48.110;11.660;2023-11-22T12:15:04;3.05;;;2.30;;
79348;SDS011;68817;48.110;11.660;2023-11-22T12:17:31;3.97;;;2.42;;
79348;SDS011;68817;48.110;11.660;2023-11-22T12:20:10;3.13;;;2.20;;
79348;SDS011;68817;48.110;11.660;2023-11-22T12:22:37;2.72;;;2.20;;
79348;SDS011;68817;48.110;11.660;2023-11-22T12:25:03;2.67;;;2.00;;
79348;SDS011;68817;48.110;11.660;2023-11-22T12:27:30;2.35;;;1.73;;
79348;SDS011;68817;48.110;11.660;2023-11-22T12:29:56;3.42;;;2.03;;
79348;SDS011;68817;48.110;11.660;2023-11-22T12:32:24;3.17;;;2.20;;
79348;SDS011;68817;48.110;11.660;2023-11-22T12:34:49;3.35;;;2.40;;
79348;SDS011;68817;48.110;11.660;2023-11-22T12:37:19;2.97;;;2.03;;
79348;SDS011;68817;48.110;11.660;2023-11-22T12:39:46;3.03;;;2.00;;
79348;SDS011;68817;48.110;11.660;2023-11-22T12:42:13;2.92;;;2.10;;
79348;SDS011;68817;48.110;11.660;2023-11-22T12:44:57;2.97;;;2.17;;
79348;SDS011;68817;48.110;11.660;2023-11-22T12:47:41;3.72;;;2.17;;
79348;SDS011;68817;48.110;11.660;2023-11-22T12:50:07;2.88;;;2.20;;
79348;SDS011;68817;48.110;11.660;2023-11-22T12:53:12;4.55;;;2.17;;
79348;SDS011;68817;48.110;11.660;2023-11-22T12:55:41;2.78;;;2.00;;
79348;SDS011;68817;48.110;11.660;2023-11-22T12:58:10;2.58;;;1.85;;
79348;SDS011;68817;48.110;11.660;2023-11-22T13:00:37;4.90;;;2.22;;
79348;SDS011;68817;48.110;11.660;2023-11-22T13:03:04;2.60;;;1.80;;
79348;SDS011;68817;48.110;11.660;2023-11-22T13:05:33;2.92;;;2.00;;
79348;SDS011;68817;48.110;11.660;2023-11-22T13:07:58;2.58;;;2.00;;
79348;SDS011;68817;48.110;11.660;2023-11-22T13:10:24;4.10;;;2.20;;
79348;SDS011;68817;48.110;11.660;2023-11-22T13:12:54;3.05;;;1.92;;
79348;SDS011;68817;48.110;11.660;2023-11-22T13:15:20;3.50;;;2.42;;
79348;SDS011;68817;48.110;11.660;2023-11-22T13:17:49;4.22;;;2.13;;
79348;SDS011;68817;48.110;11.660;2023-11-22T13:20:15;3.25;;;2.67;;
79348;SDS011;68817;48.110;11.660;2023-11-22T13:22:41;3.17;;;2.60;;
79348;SDS011;68817;48.110;11.660;2023-11-22T13:25:09;3.08;;;2.28;;
79348;SDS011;68817;48.110;11.660;2023-11-22T13:27:47;3.10;;;2.30;;
79348;SDS011;68817;48.110;11.660;2023-11-22T13:30:13;7.63;;;2.47;;
79348;SDS011;68817;48.110;11.660;2023-11-22T13:32:47;3.50;;;2.63;;
79348;SDS011;68817;48.110;11.660;2023-11-22T13:35:16;3.40;;;2.45;;
79348;SDS011;68817;48.110;11.660;2023-11-22T13:37:47;3.95;;;2.33;;
79348;SDS011;68817;48.110;11.660;2023-11-22T13:40:17;4.07;;;3.00;;
79348;SDS011;68817;48.110;11.660;2023-11-22T13:42:47;3.75;;;2.97;;
79348;SDS011;68817;48.110;11.660;2023-11-22T13:45:15;4.45;;;2.70;;
79348;SDS011;68817;48.110;11.660;2023-11-22T13:47:48;4.90;;;2.88;;
79348;SDS011;68817;48.110;11.660;2023-11-22T13:50:20;5.38;;;2.85;;
79348;SDS011;68817;48.110;11.660;2023-11-22T13:52:49;3.85;;;2.88;;
79348;SDS011;68817;48.110;11.660;2023-11-22T13:55:15;3.63;;;3.08;;
79348;SDS011;68817;48.110;11.660;2023-11-22T13:57:43;3.95;;;2.92;;
79348;SDS011;68817;48.110;11.660;2023-11-22T14:00:09;3.47;;;2.60;;
79348;SDS011;68817;48.110;11.660;2023-11-22T14:02:43;4.28;;;3.00;;
79348;SDS011;68817;48.110;11.660;2023-11-22T14:05:11;4.78;;;2.85;;
79348;SDS011;68817;48.110;11.660;2023-11-22T14:07:37;6.07;;;3.17;;
79348;SDS011;68817;48.110;11.660;2023-11-22T14:10:03;4.32;;;2.97;;
79348;SDS011;68817;48.110;11.660;2023-11-22T14:12:30;3.85;;;2.80;;
79348;SDS011;68817;48.110;11.660;2023-11-22T14:14:57;2.80;;;2.40;;
79348;SDS011;68817;48.110;11.660;2023-11-22T14:17:23;3.55;;;3.00;;
79348;SDS011;68817;48.110;11.660;2023-11-22T14:19:49;4.45;;;2.83;;
79348;SDS011;68817;48.110;11.660;2023-11-22T14:22:15;3.83;;;2.67;;
79348;SDS011;68817;48.110;11.660;2023-11-22T14:24:42;4.43;;;2.60;;
79348;SDS011;68817;48.110;11.660;2023-11-22T14:27:10;5.43;;;2.80;;
79348;SDS011;68817;48.110;11.660;2023-11-22T14:29:35;2.83;;;2.45;;
79348;SDS011;68817;48.110;11.660;2023-11-22T14:32:01;4.63;;;2.58;;
79348;SDS011;68817;48.110;11.660;2023-11-22T14:34:27;4.07;;;2.65;;
79348;SDS011;68817;48.110;11.660;2023-11-22T14:36:52;3.38;;;2.45;;
79348;SDS011;68817;48.110;11.660;2023-11-22T14:39:18;3.03;;;2.50;;
79348;SDS011;68817;48.110;11.660;2023-11-22T14:41:44;3.90;;;2.53;;